createdAt,value
2019-04-03T00:00:17.546Z,8.78
2019-04-03T00:02:46.116Z,8.52
2019-04-03T00:05:14.687Z,8.91
2019-04-03T00:07:43.528Z,8.08
2019-04-03T00:10:12.701Z,8.35
2019-04-03T00:12:41.374Z,8.55
2019-04-03T00:15:11.699Z,8.34
2019-04-03T00:17:40.986Z,8.75
2019-04-03T00:20:09.981Z,8.46
2019-04-03T00:22:38.514Z,9.01
2019-04-03T00:25:07.410Z,8.55
2019-04-03T00:27:36.166Z,8.39
2019-04-03T00:30:06.384Z,9.35
2019-04-03T00:32:35.060Z,8.54
2019-04-03T00:35:04.793Z,8.68
2019-04-03T00:37:33.439Z,8.89
2019-04-03T00:40:02.045Z,8.96
2019-04-03T00:42:30.741Z,9.10
2019-04-03T00:44:59.459Z,9.36
2019-04-03T00:47:28.164Z,9.34
2019-04-03T00:49:57.145Z,9.23
2019-04-03T00:52:27.502Z,8.85
2019-04-03T00:54:57.103Z,8.13
2019-04-03T00:57:26.316Z,8.45
2019-04-03T00:59:56.414Z,9.14
2019-04-03T01:02:27.824Z,8.56
2019-04-03T01:04:58.099Z,8.38
2019-04-03T01:07:28.810Z,8.57
2019-04-03T01:09:57.799Z,8.30
2019-04-03T01:12:30.622Z,8.30
2019-04-03T01:14:58.294Z,7.80
2019-04-03T01:17:26.853Z,7.78
2019-04-03T01:19:55.411Z,7.55
2019-04-03T01:22:23.973Z,7.03
2019-04-03T01:24:52.651Z,7.11
2019-04-03T01:27:21.315Z,7.20
2019-04-03T01:29:49.978Z,7.18
2019-04-03T01:32:18.632Z,7.85
2019-04-03T01:34:47.947Z,7.38
2019-04-03T01:37:18.159Z,6.97
2019-04-03T01:39:47.225Z,6.76
2019-04-03T01:42:15.809Z,6.55
2019-04-03T01:44:44.571Z,6.50
2019-04-03T01:47:13.227Z,6.30
2019-04-03T01:49:41.892Z,6.51
2019-04-03T01:52:10.451Z,6.54
2019-04-03T01:54:40.192Z,6.31
2019-04-03T01:57:08.860Z,6.67
2019-04-03T01:59:37.948Z,6.15
2019-04-03T02:02:08.477Z,6.69
2019-04-03T02:04:37.469Z,6.16
2019-04-03T02:07:06.037Z,6.12
2019-04-03T02:09:34.786Z,5.97
2019-04-03T02:12:03.464Z,5.99
2019-04-03T02:14:32.112Z,5.95
2019-04-03T02:17:00.683Z,6.04
2019-04-03T02:19:29.241Z,6.21
2019-04-03T02:21:58.518Z,6.05
2019-04-03T02:24:27.881Z,5.72
2019-04-03T02:26:56.444Z,5.96
2019-04-03T02:29:25.158Z,5.85
2019-04-03T02:31:53.975Z,6.11
2019-04-03T02:34:22.493Z,5.76
2019-04-03T02:36:51.197Z,5.89
2019-04-03T02:39:19.849Z,5.81
2019-04-03T02:41:48.814Z,5.56
2019-04-03T02:44:19.145Z,5.63
2019-04-03T02:46:48.022Z,5.40
2019-04-03T02:49:16.545Z,5.57
2019-04-03T02:51:46.043Z,6.03
2019-04-03T02:54:26.466Z,5.59
2019-04-03T02:56:56.275Z,5.53
2019-04-03T02:59:25.959Z,6.04
2019-04-03T03:01:55.571Z,5.85
2019-04-03T03:04:24.889Z,5.38
2019-04-03T03:06:53.895Z,5.40
2019-04-03T03:09:22.824Z,5.15
2019-04-03T03:11:54.870Z,5.30
2019-04-03T03:14:22.876Z,5.16
2019-04-03T03:16:52.073Z,5.32
2019-04-03T03:19:22.341Z,5.14
2019-04-03T03:21:54.644Z,5.93
2019-04-03T03:24:23.933Z,5.90
2019-04-03T03:26:52.971Z,5.39
2019-04-03T03:29:25.396Z,5.58
2019-04-03T03:32:10.914Z,5.67
2019-04-03T03:34:47.472Z,5.66
2019-04-03T03:37:00.144Z,5.42
2019-04-03T03:39:27.741Z,5.45
2019-04-03T03:41:58.189Z,5.56
2019-04-03T03:44:28.278Z,5.11
2019-04-03T03:47:01.466Z,5.29
2019-04-03T03:49:29.124Z,5.35
2019-04-03T03:52:02.608Z,5.15
2019-04-03T03:54:30.788Z,5.05
2019-04-03T03:57:04.349Z,4.80
2019-04-03T03:59:30.844Z,5.02
2019-04-03T04:02:03.241Z,5.11
2019-04-03T04:04:30.606Z,5.00
2019-04-03T04:07:02.040Z,4.74
2019-04-03T04:09:30.343Z,4.73
2019-04-03T04:11:59.289Z,4.81
2019-04-03T04:14:28.321Z,4.65
2019-04-03T04:16:57.375Z,4.35
2019-04-03T04:19:30.196Z,4.50
2019-04-03T04:21:57.458Z,4.68
2019-04-03T04:24:28.298Z,4.66
2019-04-03T04:26:57.005Z,4.73
2019-04-03T04:29:25.653Z,4.78
2019-04-03T04:31:54.331Z,4.55
2019-04-03T04:34:23.002Z,4.58
2019-04-03T04:36:53.076Z,4.57
2019-04-03T04:39:22.163Z,4.87
2019-04-03T04:41:50.812Z,5.00
2019-04-03T04:44:19.409Z,4.86
2019-04-03T04:46:48.108Z,4.82
2019-04-03T04:49:16.719Z,4.82
2019-04-03T04:51:45.305Z,4.97
2019-04-03T04:54:13.949Z,5.10
2019-04-03T04:56:43.043Z,5.49
2019-04-03T04:59:13.530Z,5.10
2019-04-03T05:01:42.349Z,5.29
2019-04-03T05:04:11.053Z,4.92
2019-04-03T05:06:39.720Z,5.16
2019-04-03T05:09:08.501Z,5.11
2019-04-03T05:11:39.065Z,5.36
2019-04-03T05:14:07.972Z,5.38
2019-04-03T05:16:36.779Z,5.50
2019-04-03T05:19:10.008Z,5.41
2019-04-03T05:21:36.160Z,5.56
2019-04-03T05:24:11.481Z,5.82
2019-04-03T05:26:36.303Z,5.82
2019-04-03T05:29:05.095Z,5.93
2019-04-03T05:31:33.751Z,6.08
2019-04-03T05:34:02.721Z,6.60
2019-04-03T05:36:31.415Z,6.60
2019-04-03T05:39:02.585Z,6.73
2019-04-03T05:41:30.857Z,6.99
2019-04-03T05:44:01.459Z,7.22
2019-04-03T05:46:30.111Z,7.04
2019-04-03T05:48:58.760Z,7.04
2019-04-03T05:51:29.153Z,7.14
2019-04-03T05:53:58.031Z,7.70
2019-04-03T05:56:26.618Z,7.40
2019-04-03T05:58:57.242Z,7.80
2019-04-03T06:01:25.897Z,7.41
2019-04-03T06:03:54.550Z,7.59
2019-04-03T06:06:23.341Z,7.85
2019-04-03T06:08:52.074Z,8.17
2019-04-03T06:11:21.190Z,8.04
2019-04-03T06:13:50.350Z,8.21
2019-04-03T06:16:19.096Z,8.62
2019-04-03T06:18:48.238Z,8.11
2019-04-03T06:21:17.049Z,7.94
2019-04-03T06:23:45.727Z,8.00
2019-04-03T06:26:14.349Z,7.93
2019-04-03T06:28:44.960Z,7.88
2019-04-03T06:31:13.671Z,8.20
2019-04-03T06:33:42.374Z,8.25
2019-04-03T06:36:10.944Z,7.96
2019-04-03T06:38:39.492Z,8.25
2019-04-03T06:41:09.085Z,8.51
2019-04-03T06:43:38.047Z,9.00
2019-04-03T06:46:06.828Z,9.11
2019-04-03T06:48:36.502Z,8.65
2019-04-03T06:51:06.065Z,8.33
2019-04-03T06:53:34.809Z,8.67
2019-04-03T06:56:07.666Z,8.80
2019-04-03T06:58:38.627Z,8.93
2019-04-03T07:01:06.309Z,9.13
2019-04-03T07:03:35.146Z,9.62
2019-04-03T07:06:03.819Z,9.78
2019-04-03T07:08:35.649Z,9.77
2019-04-03T07:11:03.056Z,9.22
2019-04-03T07:13:31.830Z,9.10
2019-04-03T07:16:00.622Z,9.17
2019-04-03T07:18:29.321Z,9.36
2019-04-03T07:20:57.972Z,9.97
2019-04-03T07:23:28.977Z,9.63
2019-04-03T07:25:57.343Z,9.94
2019-04-03T07:28:25.922Z,9.43
2019-04-03T07:30:54.582Z,9.66
2019-04-03T07:33:23.378Z,10.00
2019-04-03T07:35:52.062Z,10.02
2019-04-03T07:38:21.837Z,10.75
2019-04-03T07:40:52.370Z,10.74
2019-04-03T07:43:21.551Z,10.28
2019-04-03T07:45:50.218Z,10.54
2019-04-03T07:48:18.869Z,10.83
2019-04-03T07:50:47.838Z,10.97
2019-04-03T07:53:17.834Z,10.74
2019-04-03T07:55:47.152Z,10.77
2019-04-03T07:58:15.849Z,10.68
2019-04-03T08:00:44.515Z,10.30
2019-04-03T08:03:13.295Z,10.79
2019-04-03T08:05:41.955Z,11.44
2019-04-03T08:08:10.635Z,11.49
2019-04-03T08:10:39.411Z,11.19
2019-04-03T08:13:07.985Z,11.45
2019-04-03T08:15:36.660Z,11.72
2019-04-03T08:18:05.440Z,11.86
2019-04-03T08:20:34.230Z,11.93
2019-04-03T08:23:05.969Z,11.84
2019-04-03T08:25:33.683Z,11.08
2019-04-03T08:28:02.384Z,11.15
2019-04-03T08:30:31.142Z,10.96
2019-04-03T08:32:59.727Z,11.20
2019-04-03T08:35:28.655Z,11.54
2019-04-03T08:37:57.369Z,11.76
2019-04-03T08:40:26.016Z,11.53
2019-04-03T08:42:54.683Z,11.51
2019-04-03T08:45:23.364Z,12.03
2019-04-03T08:47:52.321Z,11.59
2019-04-03T08:50:21.324Z,11.27
2019-04-03T08:52:50.165Z,11.39
2019-04-03T08:55:18.809Z,11.40
2019-04-03T08:57:47.367Z,12.05
2019-04-03T09:00:16.626Z,12.30
2019-04-03T09:02:45.442Z,11.85
2019-04-03T09:05:14.697Z,11.47
2019-04-03T09:07:44.110Z,11.52
2019-04-03T09:10:13.186Z,11.30
2019-04-03T09:12:42.068Z,11.96
2019-04-03T09:15:11.321Z,12.22
2019-04-03T09:17:39.990Z,12.54
2019-04-03T09:20:08.910Z,12.42
2019-04-03T09:22:37.560Z,12.64
2019-04-03T09:25:07.066Z,12.86
2019-04-03T09:27:35.904Z,13.11
2019-04-03T09:30:07.525Z,12.73
2019-04-03T09:32:37.428Z,12.92
2019-04-03T09:35:08.191Z,13.04
2019-04-03T09:37:38.107Z,13.19
2019-04-03T09:40:07.306Z,12.85
2019-04-03T09:42:36.156Z,12.93
2019-04-03T09:45:06.184Z,12.53
2019-04-03T09:47:35.670Z,12.21
2019-04-03T09:50:05.703Z,12.56
2019-04-03T09:52:41.513Z,12.88
2019-04-03T09:55:05.759Z,12.81
2019-04-03T09:57:34.432Z,12.67
2019-04-03T10:00:05.513Z,12.42
2019-04-03T10:02:34.543Z,12.74
2019-04-03T10:05:04.548Z,12.79
2019-04-03T10:07:36.003Z,12.82
2019-04-03T10:10:05.385Z,12.59
2019-04-03T10:12:34.326Z,12.99
2019-04-03T10:15:04.058Z,13.11
2019-04-03T10:17:32.603Z,13.35
2019-04-03T10:20:01.490Z,12.85
2019-04-03T10:22:30.572Z,12.49
2019-04-03T10:25:00.614Z,12.88
2019-04-03T10:27:30.280Z,13.47
2019-04-03T10:29:58.998Z,13.79
2019-04-03T10:32:28.502Z,13.94
2019-04-03T10:34:57.836Z,14.17
2019-04-03T10:37:26.870Z,13.85
2019-04-03T10:39:55.957Z,13.66
2019-04-03T10:42:24.802Z,13.26
2019-04-03T10:44:53.540Z,13.50
2019-04-03T10:47:25.320Z,14.55
2019-04-03T10:49:52.757Z,15.10
2019-04-03T10:52:21.532Z,14.45
2019-04-03T10:54:50.480Z,14.01
2019-04-03T10:57:19.186Z,14.15
2019-04-03T10:59:51.924Z,13.68
2019-04-03T11:02:18.577Z,14.08
2019-04-03T11:04:47.510Z,14.12
2019-04-03T11:07:16.892Z,14.00
2019-04-03T11:09:45.663Z,13.84
2019-04-03T11:12:14.746Z,13.89
2019-04-03T11:14:43.857Z,13.97
2019-04-03T11:17:12.654Z,14.06
2019-04-03T11:19:44.101Z,14.19
2019-04-03T11:22:12.078Z,14.43
2019-04-03T11:24:42.505Z,14.25
2019-04-03T11:27:11.342Z,14.67
2019-04-03T11:29:41.910Z,14.69
2019-04-03T11:32:10.840Z,14.76
2019-04-03T11:34:39.629Z,14.91
2019-04-03T11:37:08.403Z,15.02
2019-04-03T11:39:37.818Z,15.00
2019-04-03T11:42:06.832Z,14.76
2019-04-03T11:44:35.363Z,14.42
2019-04-03T11:47:04.504Z,14.91
2019-04-03T11:49:33.286Z,14.76
2019-04-03T11:52:02.269Z,14.60
2019-04-03T11:54:31.112Z,14.87
2019-04-03T11:56:59.924Z,14.90
2019-04-03T11:59:28.757Z,15.05
2019-04-03T12:01:57.623Z,14.52
2019-04-03T12:04:26.952Z,14.95
2019-04-03T12:06:55.804Z,14.69
2019-04-03T12:09:24.957Z,14.31
2019-04-03T12:11:54.985Z,14.71
2019-04-03T12:14:24.257Z,14.64
2019-04-03T12:16:53.117Z,14.67
2019-04-03T12:19:21.975Z,14.87
2019-04-03T12:21:51.296Z,15.11
2019-04-03T12:24:20.334Z,15.19
2019-04-03T12:26:51.739Z,15.28
2019-04-03T12:29:21.904Z,15.22
2019-04-03T12:31:51.234Z,15.18
2019-04-03T12:34:22.993Z,15.11
2019-04-03T12:36:51.516Z,15.15
2019-04-03T12:39:26.944Z,15.24
2019-04-03T12:41:57.231Z,15.33
2019-04-03T12:44:26.591Z,15.37
2019-04-03T12:46:55.749Z,14.81
2019-04-03T12:49:25.067Z,15.20
2019-04-03T12:51:53.937Z,15.99
2019-04-03T12:54:22.613Z,16.95
2019-04-03T12:56:51.431Z,17.37
2019-04-03T12:59:21.031Z,16.74
2019-04-03T13:01:50.746Z,17.57
2019-04-03T13:04:20.088Z,17.86
2019-04-03T13:06:49.053Z,18.37
2019-04-03T13:09:18.389Z,17.98
2019-04-03T13:11:49.802Z,18.07
2019-04-03T13:14:25.106Z,18.57
2019-04-03T13:16:48.876Z,18.78
2019-04-03T13:19:17.622Z,18.13
2019-04-03T13:21:46.276Z,17.72
2019-04-03T13:24:17.105Z,17.93
2019-04-03T13:26:45.960Z,16.82
2019-04-03T13:29:14.694Z,17.41
2019-04-03T13:31:44.458Z,18.39
2019-04-03T13:34:14.346Z,18.18
2019-04-03T13:36:43.240Z,18.55
2019-04-03T13:39:12.418Z,19.08
2019-04-03T13:41:42.476Z,18.57
2019-04-03T13:44:11.711Z,18.00
2019-04-03T13:46:40.377Z,18.44
2019-04-03T13:49:09.448Z,18.65
2019-04-03T13:51:38.415Z,17.76
2019-04-03T13:54:08.188Z,18.04
2019-04-03T13:56:37.916Z,18.72
2019-04-03T13:59:06.880Z,18.84
2019-04-03T14:01:35.761Z,18.54
2019-04-03T14:04:04.891Z,18.62
2019-04-03T14:06:35.918Z,18.73
2019-04-03T14:09:06.469Z,18.20
2019-04-03T14:11:35.541Z,18.39
2019-04-03T14:14:04.362Z,18.63
2019-04-03T14:16:34.897Z,18.28
2019-04-03T14:19:04.139Z,18.36
2019-04-03T14:21:35.561Z,17.11
2019-04-03T14:24:07.073Z,17.65
2019-04-03T14:26:34.539Z,17.47
2019-04-03T14:29:05.720Z,17.95
2019-04-03T14:31:37.350Z,17.69
2019-04-03T14:34:05.156Z,18.26
2019-04-03T14:36:34.713Z,18.72
2019-04-03T14:39:08.757Z,18.86
2019-04-03T14:41:36.683Z,18.99
2019-04-03T14:44:07.785Z,19.20
2019-04-03T14:46:36.303Z,19.04
2019-04-03T14:49:04.941Z,18.95
2019-04-03T14:51:33.736Z,19.14
2019-04-03T14:54:03.266Z,19.14
2019-04-03T14:56:33.250Z,18.22
2019-04-03T14:59:02.651Z,16.68
2019-04-03T15:01:31.317Z,16.27
2019-04-03T15:04:01.139Z,16.38
2019-04-03T15:06:30.340Z,16.21
2019-04-03T15:08:59.167Z,16.24
2019-04-03T15:11:27.869Z,15.90
2019-04-03T15:13:57.403Z,16.12
2019-04-03T15:16:26.435Z,15.97
2019-04-03T15:18:55.053Z,15.97
2019-04-03T15:21:24.793Z,16.10
2019-04-03T15:23:54.170Z,15.99
2019-04-03T15:26:23.128Z,15.70
2019-04-03T15:28:52.560Z,15.84
2019-04-03T15:31:23.877Z,15.69
2019-04-03T15:33:53.039Z,15.99
2019-04-03T15:36:22.757Z,15.75
2019-04-03T15:38:51.451Z,15.80
2019-04-03T15:41:20.654Z,16.00
2019-04-03T15:43:51.337Z,15.99
2019-04-03T15:46:19.952Z,15.97
2019-04-03T15:48:48.807Z,15.96
2019-04-03T15:51:17.794Z,15.87
2019-04-03T15:53:46.941Z,15.74
2019-04-03T15:56:16.738Z,15.90
2019-04-03T15:58:45.667Z,15.93
2019-04-03T16:01:14.396Z,16.01
2019-04-03T16:03:43.329Z,15.86
2019-04-03T16:06:12.046Z,15.73
2019-04-03T16:08:43.657Z,15.68
2019-04-03T16:11:11.515Z,15.54
2019-04-03T16:13:40.164Z,15.60
2019-04-03T16:16:09.456Z,15.55
2019-04-03T16:18:38.991Z,15.76
2019-04-03T16:21:07.883Z,15.74
2019-04-03T16:23:38.188Z,15.93
2019-04-03T16:26:07.802Z,15.97
2019-04-03T16:28:37.178Z,15.73
2019-04-03T16:31:06.321Z,15.89
2019-04-03T16:33:35.715Z,15.66
2019-04-03T16:36:06.893Z,15.89
2019-04-03T16:38:36.472Z,16.07
2019-04-03T16:41:05.861Z,16.00
2019-04-03T16:43:34.712Z,15.71
2019-04-03T16:46:03.537Z,14.95
2019-04-03T16:48:32.228Z,15.18
2019-04-03T16:51:01.593Z,15.02
2019-04-03T16:53:30.361Z,14.40
2019-04-03T16:55:58.896Z,15.01
2019-04-03T16:58:27.971Z,15.14
2019-04-03T17:00:56.596Z,14.65
2019-04-03T17:03:27.345Z,15.12
2019-04-03T17:05:56.498Z,15.20
2019-04-03T17:08:25.961Z,15.17
2019-04-03T17:10:56.242Z,14.36
2019-04-03T17:13:25.590Z,14.29
2019-04-03T17:15:55.074Z,14.57
2019-04-03T17:18:23.834Z,14.13
2019-04-03T17:20:53.211Z,13.96
2019-04-03T17:23:23.388Z,13.35
2019-04-03T17:25:52.428Z,13.37
2019-04-03T17:28:21.228Z,13.17
2019-04-03T17:30:51.524Z,13.64
2019-04-03T17:33:21.247Z,13.30
2019-04-03T17:35:50.238Z,13.21
2019-04-03T17:38:19.123Z,13.18
2019-04-03T17:40:47.970Z,13.24
2019-04-03T17:43:17.029Z,13.21
2019-04-03T17:45:46.949Z,12.94
2019-04-03T17:48:15.657Z,13.01
2019-04-03T17:50:44.598Z,13.20
2019-04-03T17:53:13.353Z,13.31
2019-04-03T17:55:45.273Z,13.08
2019-04-03T17:58:16.537Z,13.18
2019-04-03T18:00:44.147Z,13.09
2019-04-03T18:03:12.900Z,13.14
2019-04-03T18:05:41.568Z,13.30
2019-04-03T18:08:10.911Z,13.01
2019-04-03T18:10:40.847Z,12.95
2019-04-03T18:13:10.339Z,13.08
2019-04-03T18:15:39.098Z,13.12
2019-04-03T18:18:08.000Z,13.36
2019-04-03T18:20:36.521Z,13.08
2019-04-03T18:23:05.270Z,12.82
2019-04-03T18:25:34.674Z,12.69
2019-04-03T18:28:05.378Z,12.76
2019-04-03T18:30:34.401Z,12.75
2019-04-03T18:33:05.551Z,12.89
2019-04-03T18:35:34.040Z,12.49
2019-04-03T18:38:03.031Z,12.88
2019-04-03T18:40:31.704Z,12.72
2019-04-03T18:43:00.861Z,12.97
2019-04-03T18:45:29.508Z,12.60
2019-04-03T18:47:58.354Z,12.54
2019-04-03T18:50:27.482Z,12.28
2019-04-03T18:52:56.660Z,12.17
2019-04-03T18:55:25.327Z,12.24
2019-04-03T18:57:54.010Z,12.20
2019-04-03T19:00:22.716Z,12.22
2019-04-03T19:02:51.495Z,12.37
2019-04-03T19:05:20.444Z,12.47
2019-04-03T19:07:49.022Z,12.12
2019-04-03T19:10:18.679Z,12.35
2019-04-03T19:12:48.335Z,12.22
2019-04-03T19:15:17.187Z,12.15
2019-04-03T19:17:59.013Z,11.85
2019-04-03T19:20:17.984Z,11.90
2019-04-03T19:22:46.639Z,11.84
2019-04-03T19:25:15.466Z,11.96
2019-04-03T19:27:44.100Z,11.48
2019-04-03T19:30:14.836Z,11.45
2019-04-03T19:32:44.114Z,11.35
2019-04-03T19:35:13.197Z,11.12
2019-04-03T19:37:45.061Z,11.45
2019-04-03T19:40:13.501Z,11.62
2019-04-03T19:42:43.850Z,11.54
2019-04-03T19:45:13.387Z,11.59
2019-04-03T19:47:42.134Z,11.32
2019-04-03T19:50:11.430Z,11.20
2019-04-03T19:52:42.185Z,11.33
2019-04-03T19:55:10.831Z,11.17
2019-04-03T19:57:39.868Z,11.44
2019-04-03T20:00:11.266Z,11.49
2019-04-03T20:02:43.125Z,11.33
2019-04-03T20:05:11.416Z,11.61
2019-04-03T20:07:40.077Z,11.47
2019-04-03T20:10:09.324Z,11.21
2019-04-03T20:12:38.482Z,11.65
2019-04-03T20:15:09.167Z,11.53
2019-04-03T20:17:37.897Z,11.48
2019-04-03T20:20:07.025Z,11.54
2019-04-03T20:22:37.426Z,11.63
2019-04-03T20:25:07.445Z,11.31
2019-04-03T20:27:36.600Z,11.54
2019-04-03T20:30:06.041Z,11.53
2019-04-03T20:32:34.587Z,11.59
2019-04-03T20:35:04.309Z,11.32
2019-04-03T20:37:33.066Z,11.06
2019-04-03T20:40:01.756Z,11.04
2019-04-03T20:42:30.592Z,11.07
2019-04-03T20:44:59.227Z,11.09
2019-04-03T20:47:28.120Z,11.05
2019-04-03T20:49:57.159Z,10.92
2019-04-03T20:52:25.733Z,10.82
2019-04-03T20:54:54.377Z,10.76
2019-04-03T20:57:23.247Z,10.54
2019-04-03T21:00:01.652Z,10.39
2019-04-03T21:02:22.911Z,10.46
2019-04-03T21:04:52.197Z,10.84
2019-04-03T21:07:23.623Z,10.78
2019-04-03T21:09:51.717Z,10.73
2019-04-03T21:12:20.376Z,10.95
2019-04-03T21:14:49.392Z,10.72
2019-04-03T21:17:19.032Z,10.73
2019-04-03T21:19:49.954Z,10.54
2019-04-03T21:22:18.916Z,10.61
2019-04-03T21:24:47.534Z,10.54
2019-04-03T21:27:16.314Z,10.47
2019-04-03T21:29:45.603Z,10.71
2019-04-03T21:32:14.460Z,10.52
2019-04-03T21:34:43.126Z,10.83
2019-04-03T21:37:13.979Z,10.26
2019-04-03T21:39:43.795Z,10.01
2019-04-03T21:42:13.237Z,9.86
2019-04-03T21:44:42.343Z,9.84
2019-04-03T21:47:11.738Z,9.65
2019-04-03T21:49:41.362Z,10.05
2019-04-03T21:52:10.280Z,9.68
2019-04-03T21:54:38.939Z,9.96
2019-04-03T21:57:07.682Z,9.94
2019-04-03T21:59:36.527Z,9.81
2019-04-03T22:02:05.071Z,10.03
2019-04-03T22:04:34.150Z,10.25
2019-04-03T22:07:03.016Z,10.24
2019-04-03T22:09:32.072Z,10.20
2019-04-03T22:12:01.060Z,9.77
2019-04-03T22:14:29.723Z,9.75
2019-04-03T22:16:58.478Z,9.71
2019-04-03T22:19:27.691Z,9.49
2019-04-03T22:21:56.875Z,9.60
2019-04-03T22:24:25.532Z,9.54
2019-04-03T22:26:54.151Z,9.48
2019-04-03T22:29:22.798Z,9.63
2019-04-03T22:31:53.639Z,9.81
2019-04-03T22:34:22.141Z,9.83
2019-04-03T22:36:50.775Z,9.81
2019-04-03T22:39:19.424Z,9.84
2019-04-03T22:41:48.281Z,9.88
2019-04-03T22:44:17.662Z,9.51
2019-04-03T22:46:46.485Z,9.51
2019-04-03T22:49:15.126Z,9.17
2019-04-03T22:51:43.695Z,9.46
2019-04-03T22:54:12.758Z,9.70
2019-04-03T22:56:41.908Z,9.14
2019-04-03T22:59:10.575Z,9.34
2019-04-03T23:01:39.397Z,9.29
2019-04-03T23:04:08.061Z,9.35
2019-04-03T23:06:36.613Z,9.45
2019-04-03T23:09:06.796Z,9.35
2019-04-03T23:11:35.363Z,9.48
2019-04-03T23:14:06.797Z,9.35
2019-04-03T23:16:35.478Z,9.45
2019-04-03T23:19:04.018Z,9.59
2019-04-03T23:21:32.567Z,9.62
2019-04-03T23:24:01.333Z,9.51
2019-04-03T23:26:32.162Z,9.53
2019-04-03T23:29:00.642Z,9.45
2019-04-03T23:31:29.207Z,9.25
2019-04-03T23:33:58.162Z,8.60
2019-04-03T23:36:26.814Z,8.59
2019-04-03T23:38:56.707Z,8.52
2019-04-03T23:41:25.758Z,8.37
2019-04-03T23:43:54.300Z,8.66
2019-04-03T23:46:22.967Z,9.00
2019-04-03T23:48:51.548Z,8.60
2019-04-03T23:51:23.249Z,8.47
2019-04-03T23:53:51.075Z,8.51
2019-04-03T23:56:19.731Z,8.73
2019-04-03T23:58:48.380Z,9.17
